Time;durP1;ratioP1;P1;durP2;ratioP2;P2;SDS_P1;SDS_P2;PMS_P1;PMS_P2;Temp;Humidity;BMP_temperature;BMP_pressure;BME280_temperature;BME280_humidity;BME280_pressure;Samples;Min_cycle;Max_cycle;Signal;HPM_P1;HPM_P2
2021/11/06 00:00:44;;;;;;;12.75;6.30;;;12.30;99.90;;;12.58;73.50;102633.06;4809812;29;20176;-69
2021/11/06 00:03:13;;;;;;;11.48;6.07;;;12.30;99.90;;;12.53;73.83;102631.22;4825814;29;20046;-69
2021/11/06 00:05:42;;;;;;;12.48;6.47;;;12.30;99.90;;;12.53;74.15;102628.56;4809692;29;20061;-68
2021/11/06 00:08:12;;;;;;;11.57;6.07;;;12.20;99.90;;;12.42;74.24;102623.09;4826127;29;20046;-68
2021/11/06 00:10:41;;;;;;;8.63;6.30;;;12.20;99.90;;;12.39;74.67;102635.41;4826145;29;20057;-68
2021/11/06 00:13:09;;;;;;;9.88;6.82;;;12.10;99.90;;;12.44;74.77;102631.09;4825603;29;20120;-70
2021/11/06 00:15:38;;;;;;;11.50;6.57;;;12.10;99.90;;;12.38;75.14;102615.06;4825576;29;20106;-68
2021/11/06 00:18:07;;;;;;;10.80;6.30;;;12.10;99.90;;;12.32;75.31;102623.81;4825782;29;20054;-68
2021/11/06 00:20:36;;;;;;;10.57;6.80;;;12.00;99.90;;;12.41;75.52;102625.72;4825765;29;20405;-69
2021/11/06 00:23:04;;;;;;;12.73;7.20;;;12.10;99.90;;;12.33;75.67;102620.28;4808967;29;20137;-68
2021/11/06 00:25:34;;;;;;;15.00;7.13;;;12.10;99.90;;;12.34;75.86;102629.13;4824456;29;20057;-68
2021/11/06 00:28:03;;;;;;;13.23;8.15;;;12.00;99.90;;;12.32;76.22;102623.81;4825367;29;20588;-69
2021/11/06 00:30:32;;;;;;;17.77;7.80;;;12.00;99.90;;;12.27;76.12;102611.34;4809162;29;20059;-67
2021/11/06 00:33:01;;;;;;;12.40;8.00;;;12.00;99.90;;;12.30;76.24;102627.31;4825678;29;20054;-68
2021/11/06 00:35:30;;;;;;;13.20;7.35;;;12.00;99.90;;;12.16;76.16;102612.91;4825296;29;20553;-66
2021/11/06 00:37:58;;;;;;;16.70;8.00;;;12.00;99.90;;;12.24;76.29;102625.44;4809067;29;20050;-66
2021/11/06 00:40:27;;;;;;;16.25;8.00;;;12.00;99.90;;;12.19;76.56;102612.97;4825487;29;20054;-69
2021/11/06 00:42:57;;;;;;;13.95;7.85;;;11.90;99.90;;;12.23;76.48;102630.72;4824258;29;20465;-69
2021/11/06 00:45:25;;;;;;;12.03;7.90;;;11.90;99.90;;;12.00;76.76;102601.13;4824218;29;20058;-69
2021/11/06 00:47:54;;;;;;;17.00;8.40;;;11.90;99.90;;;11.45;76.88;102511.75;4825017;29;20314;-69
2021/11/06 00:50:23;;;;;;;14.52;8.43;;;11.90;99.90;;;12.11;77.16;102657.03;4825560;29;20079;-69
2021/11/06 00:52:53;;;;;;;14.35;7.80;;;11.80;99.90;;;12.03;77.16;102626.81;4808585;29;20038;-69
2021/11/06 00:55:22;;;;;;;15.77;8.40;;;11.70;99.90;;;11.41;77.56;102520.50;4825324;29;20049;-69
2021/11/06 00:57:52;;;;;;;14.23;8.25;;;11.70;99.90;;;11.84;77.78;102592.88;4808662;29;20066;-69
2021/11/06 01:00:22;;;;;;;16.45;8.55;;;11.70;99.90;;;11.92;77.94;102617.78;4825190;29;20058;-69
2021/11/06 01:02:51;;;;;;;14.25;8.27;;;11.60;99.90;;;11.96;77.96;102616.97;4824936;29;20046;-69
2021/11/06 01:05:20;;;;;;;14.65;8.20;;;11.60;99.90;;;11.97;77.90;102617.00;4808326;29;20548;-69
2021/11/06 01:07:49;;;;;;;16.65;7.75;;;11.70;99.90;;;11.92;77.93;102607.19;4825021;29;20489;-69
2021/11/06 01:10:19;;;;;;;15.75;8.10;;;11.70;99.90;;;11.93;77.97;102608.94;4824728;29;20058;-69
2021/11/06 01:12:47;;;;;;;16.38;8.27;;;11.60;99.90;;;11.74;78.18;102584.78;4824701;29;20113;-69
2021/11/06 01:15:17;;;;;;;13.90;7.82;;;11.60;99.90;;;11.95;78.02;102634.66;4825206;29;20565;-69
2021/11/06 01:17:49;;;;;;;16.52;8.45;;;11.70;99.90;;;11.90;78.13;102604.50;4824665;29;20050;-69
2021/11/06 01:20:18;;;;;;;14.13;7.93;;;11.60;99.90;;;11.84;78.47;102591.13;4823721;29;20058;-69
2021/11/06 01:22:47;;;;;;;13.48;8.70;;;11.60;99.90;;;11.86;78.36;102612.38;4808220;29;20386;-69
2021/11/06 01:25:16;;;;;;;16.83;9.25;;;11.60;99.90;;;11.84;78.63;102603.50;4824590;29;20043;-69
2021/11/06 01:27:46;;;;;;;15.98;8.75;;;11.50;99.90;;;11.83;78.87;102604.38;4824468;29;20109;-69
2021/11/06 01:30:16;;;;;;;11.55;8.52;;;11.50;99.90;;;11.74;79.02;102603.34;4823543;29;20046;-69
2021/11/06 01:32:46;;;;;;;14.80;8.97;;;11.50;99.90;;;11.81;79.21;102600.81;4825060;29;20416;-69
2021/11/06 01:35:15;;;;;;;16.42;9.85;;;11.50;99.90;;;11.76;79.22;102601.63;4824039;29;20475;-69
2021/11/06 01:37:44;;;;;;;18.90;9.50;;;11.50;99.90;;;11.78;79.42;102596.31;4824449;29;20129;-69
2021/11/06 01:40:17;;;;;;;17.38;9.55;;;11.50;99.90;;;11.75;79.59;102610.41;4824399;29;20056;-69
2021/11/06 01:42:47;;;;;;;16.38;9.70;;;11.40;99.90;;;11.67;79.68;102585.50;4824452;29;20051;-69
2021/11/06 01:45:19;;;;;;;15.88;10.00;;;11.50;99.90;;;11.85;79.56;102594.66;4823510;29;20047;-69
2021/11/06 01:47:49;;;;;;;14.68;9.43;;;11.50;99.90;;;11.83;79.44;102607.03;4824307;29;20070;-69
2021/11/06 01:50:20;;;;;;;16.20;10.00;;;11.50;99.90;;;11.82;79.70;102595.53;4824366;29;20144;-69
2021/11/06 01:52:49;;;;;;;22.42;10.15;;;11.50;99.90;;;11.81;79.87;102591.06;4824530;29;20054;-69
2021/11/06 01:55:18;;;;;;;17.88;11.80;;;11.50;99.90;;;11.82;79.86;102594.63;4824733;29;20103;-69
2021/11/06 01:57:48;;;;;;;21.25;10.30;;;11.50;99.90;;;11.82;80.01;102598.16;4824037;29;20397;-69
2021/11/06 02:00:20;;;;;;;16.27;10.68;;;11.50;99.90;;;11.85;80.06;102599.97;4808064;29;20091;-69
2021/11/06 02:02:52;;;;;;;19.33;10.38;;;11.50;99.90;;;11.76;79.98;102596.31;4824208;29;20050;-69
2021/11/06 02:05:21;;;;;;;16.05;10.60;;;11.50;99.90;;;11.84;80.17;102617.66;4807952;29;20469;-69
2021/11/06 02:07:49;;;;;;;19.00;10.90;;;11.50;99.90;;;11.90;80.04;102593.00;4824550;29;20111;-69
2021/11/06 02:10:18;;;;;;;18.63;10.50;;;11.60;99.90;;;11.83;80.14;102576.09;4824240;29;20058;-69
2021/11/06 02:12:49;;;;;;;20.25;11.63;;;11.60;99.90;;;11.92;80.19;102592.19;4824098;29;20039;-69
2021/11/06 02:15:20;;;;;;;23.10;11.10;;;11.60;99.90;;;11.92;80.22;102602.78;4824099;29;20103;-69
2021/11/06 02:17:50;;;;;;;21.90;11.50;;;11.60;99.90;;;11.76;80.27;102548.59;4807936;29;20462;-69
2021/11/06 02:20:20;;;;;;;16.95;11.60;;;11.60;99.90;;;11.86;80.78;102568.19;4824272;29;20459;-69
2021/11/06 02:22:52;;;;;;;22.13;11.57;;;11.60;99.90;;;11.94;80.88;102578.94;4824235;29;20038;-69
2021/11/06 02:25:21;;;;;;;20.73;11.18;;;11.60;99.90;;;11.87;81.02;102551.41;4823952;29;20061;-69
2021/11/06 02:28:09;;;;;;;20.08;10.85;;;11.70;99.90;;;11.36;81.29;102470.97;4807731;29;20046;-69
2021/11/06 02:30:38;;;;;;;19.10;10.95;;;11.60;99.90;;;11.88;81.77;102581.47;4807428;29;20058;-69
2021/11/06 02:33:06;;;;;;;16.48;11.00;;;11.60;99.90;;;11.85;81.63;102581.41;4824332;29;20054;-69
2021/11/06 02:35:35;;;;;;;17.10;10.95;;;11.60;99.90;;;11.91;82.08;102585.06;4823834;29;20050;-69
2021/11/06 02:38:07;;;;;;;21.05;11.40;;;11.60;99.90;;;11.90;81.96;102578.00;4807703;29;20050;-69
2021/11/06 02:40:36;;;;;;;18.67;10.85;;;11.60;99.90;;;11.52;82.16;102511.00;4823848;29;20122;-69
2021/11/06 02:43:05;;;;;;;21.02;12.90;;;11.60;99.90;;;11.85;82.25;102581.41;4823755;29;20493;-69
2021/11/06 02:45:34;;;;;;;20.35;12.52;;;11.60;99.90;;;11.86;82.45;102580.56;4823738;29;20046;-69
2021/11/06 02:48:03;;;;;;;22.08;12.70;;;11.60;99.90;;;11.90;82.50;102582.41;4826660;29;20378;-69
2021/11/06 02:50:32;;;;;;;22.50;13.18;;;11.60;99.90;;;11.94;82.38;102582.50;4827165;29;20050;-69
2021/11/06 02:53:01;;;;;;;24.13;13.80;;;11.60;99.90;;;11.91;82.15;102573.56;4826802;29;20468;-69
2021/11/06 02:55:31;;;;;;;23.13;13.48;;;11.70;99.90;;;11.90;82.53;102566.50;4827063;29;20416;-69
2021/11/06 02:58:00;;;;;;;27.20;14.43;;;11.70;99.90;;;11.91;82.50;102577.13;4827174;29;20054;-69
2021/11/06 03:00:30;;;;;;;22.70;14.23;;;11.60;99.90;;;11.85;82.92;102563.75;4826791;29;20390;-69
2021/11/06 03:02:58;;;;;;;22.40;14.10;;;11.60;99.90;;;11.85;83.26;102571.69;4826743;29;20046;-69
2021/11/06 03:05:27;;;;;;;19.40;14.35;;;11.60;99.90;;;11.81;83.17;102563.69;4826921;29;20062;-69
2021/11/06 03:07:58;;;;;;;25.83;13.65;;;11.60;99.90;;;11.38;83.44;102491.28;4827178;29;20073;-69
2021/11/06 03:10:27;;;;;;;21.42;13.15;;;11.60;99.90;;;11.85;83.57;102573.44;4826610;29;20047;-69
2021/11/06 03:12:58;;;;;;;21.10;13.48;;;11.60;99.90;;;11.95;83.79;102571.00;4826594;29;20057;-69
2021/11/06 03:15:26;;;;;;;24.73;15.13;;;11.60;99.90;;;11.90;83.68;102572.69;4826584;29;20046;-69
2021/11/06 03:17:55;;;;;;;21.80;14.68;;;11.60;99.90;;;12.01;83.67;102575.50;4826489;29;20104;-70
2021/11/06 03:20:24;;;;;;;22.88;14.43;;;11.70;99.90;;;12.07;83.85;102578.28;4826417;29;20066;-69
2021/11/06 03:22:57;;;;;;;22.85;13.68;;;11.70;99.90;;;11.30;83.71;102425.81;4826691;29;20095;-69
2021/11/06 03:25:26;;;;;;;23.48;14.82;;;11.70;99.90;;;12.16;83.57;102565.16;4826409;29;20043;-69
2021/11/06 03:27:57;;;;;;;22.77;14.70;;;11.80;99.90;;;12.19;83.53;102568.78;4826303;29;20076;-69
2021/11/06 03:30:26;;;;;;;21.65;14.88;;;11.90;99.90;;;12.16;83.66;102560.75;4826382;29;20046;-69
2021/11/06 03:32:55;;;;;;;22.73;15.05;;;11.80;99.90;;;12.21;83.74;102566.13;4826286;29;20165;-69
2021/11/06 03:35:25;;;;;;;23.67;14.73;;;11.90;99.90;;;12.17;83.99;102561.66;4826270;29;20046;-69
2021/11/06 03:37:59;;;;;;;23.20;15.25;;;11.90;99.90;;;12.26;84.30;102567.09;4826539;29;20059;-69
2021/11/06 03:40:28;;;;;;;21.65;15.13;;;11.90;99.90;;;12.30;84.09;102558.31;4826513;29;20050;-69
2021/11/06 03:42:58;;;;;;;26.13;15.98;;;12.00;99.90;;;12.25;83.87;102560.88;4826408;29;20051;-69
2021/11/06 03:45:27;;;;;;;25.90;16.45;;;12.00;99.90;;;12.36;83.73;102554.00;4826175;29;20043;-69
2021/11/06 03:47:55;;;;;;;26.38;14.82;;;12.00;99.90;;;12.35;83.84;102562.81;4825030;29;20050;-69
2021/11/06 03:50:24;;;;;;;23.65;15.57;;;12.00;99.90;;;12.22;83.94;102544.03;4809968;29;20466;-69
2021/11/06 03:52:52;;;;;;;22.38;15.32;;;12.00;99.90;;;12.34;84.04;102563.69;4826245;29;20129;-69
2021/11/06 03:55:21;;;;;;;27.27;16.33;;;12.00;99.90;;;12.31;84.43;102554.81;4809920;29;20073;-69
2021/11/06 03:57:50;;;;;;;26.67;16.85;;;12.00;99.90;;;12.32;84.48;102557.47;4825798;29;20058;-69
2021/11/06 04:00:22;;;;;;;26.60;17.98;;;12.00;99.90;;;12.26;84.60;102572.41;4825908;29;20087;-69
2021/11/06 04:02:51;;;;;;;26.58;16.92;;;12.00;99.90;;;12.25;84.78;102555.56;4825871;29;20046;-69
2021/11/06 04:05:19;;;;;;;32.38;17.35;;;12.00;99.90;;;12.24;84.96;102548.50;4825993;29;20054;-69
2021/11/06 04:07:48;;;;;;;26.67;16.48;;;11.90;99.90;;;12.26;85.10;102553.81;4825766;29;20046;-69
2021/11/06 04:10:16;;;;;;;28.75;17.23;;;11.90;99.90;;;12.28;85.10;102554.75;4825928;29;20102;-69
2021/11/06 04:12:46;;;;;;;27.70;16.98;;;11.90;99.90;;;12.23;84.96;102544.03;4825673;29;20129;-69
2021/11/06 04:15:15;;;;;;;28.30;16.92;;;11.90;99.90;;;12.29;85.01;102552.09;4824672;29;20110;-69
2021/11/06 04:17:45;;;;;;;25.30;17.05;;;12.00;99.90;;;12.29;84.66;102551.22;4825628;29;20129;-69
2021/11/06 04:20:14;;;;;;;24.90;17.30;;;12.00;99.90;;;12.36;84.48;102558.41;4825656;29;20057;-69
2021/11/06 04:22:43;;;;;;;24.65;16.98;;;12.00;99.90;;;12.35;84.38;102546.91;4825557;29;20050;-69
2021/11/06 04:25:11;;;;;;;26.65;16.25;;;12.00;99.90;;;12.44;83.85;102562.97;4809328;29;20083;-69
2021/11/06 04:27:40;;;;;;;28.73;16.70;;;12.10;99.90;;;12.43;84.05;102573.53;4825437;29;20050;-69
2021/11/06 04:30:09;;;;;;;26.10;16.48;;;12.10;99.90;;;12.50;83.83;102573.66;4825668;29;20046;-69
2021/11/06 04:32:37;;;;;;;28.48;18.02;;;12.10;99.90;;;12.48;83.69;102571.88;4825381;29;20493;-69
2021/11/06 04:35:08;;;;;;;22.92;16.83;;;12.20;99.90;;;12.46;84.01;102576.25;4825367;29;20569;-69
2021/11/06 04:37:37;;;;;;;25.23;17.52;;;12.10;99.90;;;12.31;83.62;102549.50;4809203;29;20050;-69
2021/11/06 04:40:08;;;;;;;26.10;17.80;;;12.10;99.90;;;12.53;83.33;102570.16;4825241;29;20074;-69
2021/11/06 04:42:38;;;;;;;29.00;16.73;;;12.20;99.90;;;12.51;83.19;102574.56;4824333;29;20111;-69
2021/11/06 04:45:08;;;;;;;29.05;18.02;;;12.20;99.90;;;12.43;83.31;102576.19;4825417;29;20047;-69
2021/11/06 04:47:37;;;;;;;28.05;16.67;;;12.20;99.90;;;12.34;83.54;102554.84;4825246;29;20485;-69
2021/11/06 04:50:10;;;;;;;26.77;16.92;;;12.10;99.90;;;12.31;83.79;102560.97;4825366;29;20130;-69
2021/11/06 04:52:39;;;;;;;27.77;18.35;;;12.00;99.90;;;12.36;83.61;102569.03;4825376;29;20550;-69
2021/11/06 04:55:13;;;;;;;27.90;17.25;;;12.00;99.90;;;12.36;83.81;102569.03;4825057;29;20106;-69
2021/11/06 04:57:42;;;;;;;30.52;18.27;;;12.00;99.90;;;12.20;84.01;102559.03;4825315;29;20058;-69
2021/11/06 05:00:14;;;;;;;25.50;17.02;;;12.00;99.90;;;12.26;83.85;102561.78;4824924;29;20054;-69
2021/11/06 05:02:42;;;;;;;28.70;16.77;;;11.90;99.90;;;12.09;83.89;102537.66;4825213;29;20106;-69
2021/11/06 05:05:12;;;;;;;25.40;16.90;;;11.90;99.90;;;12.28;83.61;102565.34;4824905;29;20073;-69
2021/11/06 05:07:41;;;;;;;27.70;17.48;;;11.90;99.90;;;12.19;83.46;102557.25;4825134;29;20477;-68
2021/11/06 05:10:10;;;;;;;29.52;17.38;;;11.90;99.90;;;12.12;83.70;102543.00;4825106;29;20046;-69
2021/11/06 05:12:39;;;;;;;28.77;17.45;;;11.80;99.90;;;12.04;83.90;102543.75;4824794;29;20107;-69
2021/11/06 05:15:08;;;;;;;26.45;18.02;;;11.80;99.90;;;12.03;84.28;102549.91;4808481;29;20058;-69
2021/11/06 05:17:37;;;;;;;27.08;16.70;;;11.70;99.90;;;12.09;84.13;102547.34;4808175;29;20161;-69
2021/11/06 05:20:08;;;;;;;25.08;16.98;;;11.70;99.90;;;12.02;83.99;102534.88;4824690;29;20055;-69
2021/11/06 05:22:38;;;;;;;27.13;16.98;;;11.80;99.90;;;12.00;83.93;102536.59;4824697;29;20512;-69
2021/11/06 05:25:09;;;;;;;27.63;18.42;;;11.80;99.90;;;11.95;84.35;102554.19;4824629;29;20512;-69
2021/11/06 05:27:38;;;;;;;26.38;17.00;;;11.70;99.90;;;11.88;84.90;102557.59;4824693;29;20046;-69
2021/11/06 05:30:10;;;;;;;24.67;17.55;;;11.60;99.90;;;11.98;84.83;102554.25;4824525;29;20065;-69
2021/11/06 05:32:39;;;;;;;24.08;17.67;;;11.60;99.90;;;11.91;84.96;102558.56;4823670;29;20488;-69
2021/11/06 05:35:10;;;;;;;28.52;18.60;;;11.60;99.90;;;11.93;85.09;102555.91;4824783;29;20056;-69
2021/11/06 05:37:40;;;;;;;28.65;18.48;;;11.60;99.90;;;12.03;84.64;102557.88;4824535;29;20050;-69
2021/11/06 05:40:11;;;;;;;28.88;18.05;;;11.70;99.90;;;12.00;84.88;102549.88;4824470;29;20524;-69
2021/11/06 05:42:41;;;;;;;24.35;18.08;;;11.60;99.90;;;11.94;84.82;102537.41;4824533;29;20046;-69
2021/11/06 05:45:10;;;;;;;23.40;18.00;;;11.70;99.90;;;11.98;84.93;102554.25;4824601;29;20136;-69
2021/11/06 05:47:40;;;;;;;27.23;18.20;;;11.70;99.90;;;11.92;84.92;102543.53;4824617;29;20050;-69
2021/11/06 05:50:11;;;;;;;30.10;18.23;;;11.60;99.90;;;11.98;84.89;102541.00;4808006;29;20145;-69
2021/11/06 05:52:41;;;;;;;27.42;19.20;;;11.70;99.90;;;11.87;85.09;102529.28;4808156;29;20062;-69
2021/11/06 05:55:13;;;;;;;27.65;18.88;;;11.60;99.90;;;11.74;85.52;102536.16;4824574;29;20058;-69
2021/11/06 05:57:42;;;;;;;34.10;18.58;;;11.50;99.90;;;11.57;85.71;102509.34;4824625;29;20062;-69
2021/11/06 06:00:13;;;;;;;30.38;19.27;;;11.50;99.90;;;11.73;85.97;102531.69;4824419;29;20050;-69
2021/11/06 06:02:42;;;;;;;28.60;19.13;;;11.40;99.90;;;11.69;86.27;102541.38;4824486;29;20047;-69
2021/11/06 06:05:11;;;;;;;31.15;20.45;;;11.40;99.90;;;11.66;86.69;102538.69;4824395;29;20556;-69
2021/11/06 06:07:42;;;;;;;28.17;19.27;;;11.40;99.90;;;11.68;86.41;102534.31;4824423;29;20507;-69
2021/11/06 06:10:14;;;;;;;30.75;19.45;;;11.40;99.90;;;11.70;86.66;102540.53;4824358;29;20445;-69
2021/11/06 06:12:44;;;;;;;26.75;18.42;;;11.40;99.90;;;11.55;86.73;102511.06;4824320;29;20055;-69
2021/11/06 06:15:12;;;;;;;30.98;20.15;;;11.40;99.90;;;11.69;86.85;102536.06;4824317;29;20046;-69
2021/11/06 06:17:41;;;;;;;30.95;19.25;;;11.40;99.90;;;11.67;86.94;102526.31;4823977;29;20409;-69
2021/11/06 06:20:11;;;;;;;30.58;19.55;;;11.40;99.90;;;11.69;86.88;102538.72;4807526;29;20114;-69
2021/11/06 06:22:41;;;;;;;28.67;20.00;;;11.40;99.90;;;11.72;87.17;102530.84;4826578;29;20115;-69
2021/11/06 06:25:12;;;;;;;25.20;18.63;;;11.40;99.90;;;11.74;86.80;102526.47;4827497;29;20412;-69
2021/11/06 06:27:42;;;;;;;26.38;18.83;;;11.40;99.90;;;11.60;86.99;102512.03;4827177;29;20050;-69
2021/11/06 06:30:14;;;;;;;26.27;19.40;;;11.40;99.90;;;11.77;86.92;102534.44;4827229;29;20412;-69
2021/11/06 06:32:43;;;;;;;24.23;18.92;;;11.50;99.90;;;11.82;86.85;102534.53;4811311;29;20058;-69
2021/11/06 06:35:13;;;;;;;29.10;18.77;;;11.50;99.90;;;11.86;86.44;102532.81;4827409;29;20054;-69
2021/11/06 06:37:43;;;;;;;26.23;18.30;;;11.50;99.90;;;11.67;86.72;102521.88;4828000;29;20053;-69
2021/11/06 06:40:13;;;;;;;25.55;18.05;;;11.50;99.90;;;11.75;86.70;102525.56;4811140;29;20047;-69
2021/11/06 06:42:43;;;;;;;25.00;17.98;;;11.50;99.90;;;11.76;86.55;102522.06;4827372;29;20053;-69
2021/11/06 06:45:11;;;;;;;24.60;17.67;;;11.60;99.90;;;11.91;86.20;102528.47;4810997;29;20513;-69
2021/11/06 06:47:39;;;;;;;26.30;17.75;;;11.60;99.90;;;11.93;85.86;102530.31;4827223;29;20077;-69
2021/11/06 06:50:09;;;;;;;26.60;18.23;;;11.70;99.90;;;11.89;86.06;102524.91;4827342;29;20046;-69
2021/11/06 06:52:39;;;;;;;21.60;17.50;;;11.60;99.90;;;11.89;86.06;102536.41;4810936;29;20095;-69
2021/11/06 06:55:10;;;;;;;26.63;17.43;;;11.60;99.90;;;11.98;85.95;102530.38;4826933;29;20296;-69
2021/11/06 06:57:38;;;;;;;24.30;16.83;;;11.70;99.90;;;11.91;85.56;102521.44;4810723;29;20774;-69
2021/11/06 07:00:09;;;;;;;21.13;16.75;;;11.70;99.90;;;11.96;86.05;102543.63;4826683;29;20055;-69
2021/11/06 07:02:37;;;;;;;24.48;16.25;;;11.60;99.90;;;11.96;85.88;102548.03;4826799;29;20046;-69
2021/11/06 07:05:06;;;;;;;24.50;16.42;;;11.70;99.90;;;11.75;86.19;102509.66;4826667;29;20070;-69
2021/11/06 07:07:35;;;;;;;26.77;17.58;;;11.60;99.90;;;11.99;85.92;102537.47;4826625;29;20047;-69
2021/11/06 07:10:06;;;;;;;25.08;15.98;;;11.70;99.90;;;11.94;86.07;102544.47;4810451;29;20050;-69
2021/11/06 07:12:35;;;;;;;26.13;17.10;;;11.60;99.90;;;11.79;85.96;102505.31;4826547;29;20061;-69
2021/11/06 07:15:06;;;;;;;25.42;16.05;;;11.70;99.90;;;11.99;85.58;102540.13;4810557;29;20050;-69
2021/11/06 07:17:35;;;;;;;22.35;16.70;;;11.70;99.90;;;12.02;85.52;102540.19;4826576;29;20485;-69
2021/11/06 07:20:06;;;;;;;23.45;16.70;;;11.70;99.90;;;12.02;85.36;102540.19;4810489;29;20054;-69
2021/11/06 07:22:36;;;;;;;23.80;16.13;;;11.70;99.90;;;11.97;85.51;102542.75;4827038;29;20052;-69
2021/11/06 07:25:05;;;;;;;25.75;16.25;;;11.70;99.90;;;11.98;85.34;102560.44;4826354;29;20039;-69
2021/11/06 07:27:35;;;;;;;26.20;15.45;;;11.70;99.90;;;11.97;85.26;102541.84;4826477;29;20042;-69
2021/11/06 07:30:06;;;;;;;24.73;14.60;;;11.70;99.90;;;11.93;85.24;102547.97;4826524;29;20390;-69
2021/11/06 07:32:35;;;;;;;23.60;15.00;;;11.70;99.90;;;11.85;85.37;102544.28;4826122;29;20050;-69
2021/11/06 07:35:06;;;;;;;24.02;15.48;;;11.60;99.90;;;11.85;85.90;102552.22;4825613;29;20070;-69
2021/11/06 07:37:36;;;;;;;23.08;14.77;;;11.60;99.90;;;11.92;85.73;102548.84;4826289;29;20045;-69
2021/11/06 07:40:08;;;;;;;20.02;14.23;;;11.60;99.90;;;11.89;85.76;102543.47;4826067;29;20046;-69
2021/11/06 07:42:39;;;;;;;19.10;14.07;;;11.60;99.90;;;11.79;85.80;102535.38;4809838;29;20054;-69
2021/11/06 07:45:11;;;;;;;18.67;13.32;;;11.60;99.90;;;11.35;85.43;102446.22;4826309;29;20074;-69
2021/11/06 07:47:40;;;;;;;20.50;13.52;;;11.60;99.90;;;12.05;85.57;102556.13;4826030;29;20054;-69
2021/11/06 07:50:10;;;;;;;20.05;12.80;;;11.70;99.90;;;12.06;85.07;102537.59;4826244;29;20084;-69
2021/11/06 07:52:39;;;;;;;18.75;12.60;;;11.80;99.90;;;12.00;85.01;102542.78;4826012;29;20501;-69
2021/11/06 07:55:08;;;;;;;17.85;13.10;;;11.80;99.90;;;12.12;84.87;102540.34;4809852;29;20454;-69
2021/11/06 07:57:38;;;;;;;17.27;12.52;;;11.80;99.90;;;12.24;84.46;102542.28;4825940;29;20054;-67
2021/11/06 08:00:11;;;;;;;18.67;12.68;;;11.90;99.90;;;12.16;84.49;102536.88;4826068;29;20046;-67
2021/11/06 08:02:40;;;;;;;18.77;11.77;;;12.00;99.90;;;12.20;84.49;102561.69;4825806;29;20110;-67
2021/11/06 08:05:11;;;;;;;17.25;12.35;;;11.90;99.90;;;12.05;84.22;102535.81;4809168;29;20054;-68
2021/11/06 08:07:40;;;;;;;22.42;12.02;;;11.80;99.90;;;12.05;84.36;102548.16;4809386;29;20054;-70
2021/11/06 08:10:10;;;;;;;18.05;11.27;;;11.80;99.90;;;12.10;84.22;102544.72;4825499;29;20562;-69
2021/11/06 08:12:41;;;;;;;18.40;11.25;;;11.80;99.90;;;12.02;84.14;102529.56;4825904;29;20046;-70
2021/11/06 08:15:13;;;;;;;16.83;11.93;;;11.80;99.90;;;12.00;84.31;102536.59;4825610;29;20409;-70
2021/11/06 08:17:42;;;;;;;14.10;11.50;;;11.80;99.90;;;12.05;84.42;102548.16;4825466;29;20104;-71
2021/11/06 08:20:11;;;;;;;15.75;11.40;;;11.80;99.90;;;12.10;84.44;102542.06;4825727;29;20054;-71
2021/11/06 08:22:40;;;;;;;17.83;12.10;;;11.80;99.90;;;12.17;84.31;102546.63;4825539;29;20515;-71
2021/11/06 08:25:15;;;;;;;17.80;11.50;;;11.80;99.90;;;12.15;84.18;102542.16;4825460;29;20042;-71
2021/11/06 08:27:45;;;;;;;17.42;11.45;;;11.80;99.90;;;12.17;84.27;102540.44;4809356;29;20493;-72
2021/11/06 08:30:14;;;;;;;16.88;11.00;;;11.90;99.90;;;12.16;84.40;102534.22;4825474;29;20416;-69
2021/11/06 08:32:43;;;;;;;17.60;10.82;;;11.90;99.90;;;12.09;84.28;102528.78;4825088;29;20065;-69
2021/11/06 08:35:14;;;;;;;16.92;10.50;;;11.90;99.90;;;11.62;84.41;102409.56;4825325;29;20459;-70
2021/11/06 08:37:45;;;;;;;15.75;10.20;;;12.00;99.90;;;12.50;83.98;102525.88;4825266;29;20150;-71
2021/11/06 08:40:13;;;;;;;17.58;11.20;;;12.20;99.90;;;12.49;83.33;102533.81;4825487;29;20046;-70
2021/11/06 08:42:44;;;;;;;17.63;9.88;;;12.20;99.90;;;12.52;83.90;102529.44;4825158;29;20054;-70
2021/11/06 08:45:14;;;;;;;16.00;9.05;;;12.20;99.90;;;12.48;83.35;102527.66;4824844;29;20046;-69
2021/11/06 08:47:43;;;;;;;12.85;9.57;;;12.20;99.90;;;12.54;83.33;102532.16;4825471;29;20054;-72
2021/11/06 08:50:16;;;;;;;15.40;9.40;;;12.30;99.90;;;12.51;83.20;102514.41;4824088;29;20126;-71
2021/11/06 08:52:45;;;;;;;14.35;9.75;;;12.30;99.90;;;12.62;82.87;102531.38;4825239;29;20047;-70
2021/11/06 08:55:14;;;;;;;13.97;9.50;;;12.30;99.90;;;12.64;83.11;102531.38;4808347;29;20111;-70
2021/11/06 08:57:45;;;;;;;20.27;10.35;;;12.40;99.90;;;12.58;82.59;102539.28;4825235;29;20500;-70
2021/11/06 09:00:21;;;;;;;14.10;9.52;;;12.30;99.90;;;12.59;82.80;102539.31;4825306;29;20081;-69
2021/11/06 09:02:50;;;;;;;18.52;9.80;;;12.30;99.90;;;12.54;82.35;102527.72;4824771;29;20123;-69
2021/11/06 09:05:18;;;;;;;12.70;9.55;;;12.30;99.90;;;12.38;82.38;102522.19;4824874;29;20077;-69
2021/11/06 09:07:47;;;;;;;17.95;9.85;;;12.20;99.90;;;12.41;82.32;102531.06;4823758;29;20066;-68
2021/11/06 09:10:20;;;;;;;16.33;9.90;;;12.10;99.90;;;12.36;82.37;102522.16;4808569;29;20046;-69
2021/11/06 09:12:50;;;;;;;13.90;10.15;;;12.10;99.90;;;12.32;82.37;102514.13;4823865;29;20187;-68
2021/11/06 09:15:20;;;;;;;12.23;9.20;;;12.10;99.90;;;12.18;82.53;102505.94;4824777;29;20053;-68
2021/11/06 09:17:50;;;;;;;18.60;10.30;;;12.10;99.90;;;12.28;82.30;102552.97;4824956;29;20054;-68
2021/11/06 09:20:19;;;;;;;14.40;9.02;;;12.10;99.90;;;12.25;82.54;102538.78;4823733;29;20046;-68
2021/11/06 09:22:50;;;;;;;16.27;9.57;;;12.00;99.90;;;12.31;82.45;102517.66;4823737;29;20054;-69
2021/11/06 09:25:19;;;;;;;14.90;10.32;;;12.00;99.90;;;12.22;82.92;102514.84;4824698;29;20069;-68
2021/11/06 09:27:50;;;;;;;13.00;9.52;;;12.00;99.90;;;12.26;82.93;102511.38;4824432;29;20520;-68
2021/11/06 09:30:18;;;;;;;;;;;12.00;99.90;;;12.18;82.64;102505.94;4824962;29;20050;-70
2021/11/06 09:32:47;;;;;;;13.93;9.50;;;11.90;99.90;;;12.21;82.77;102508.66;4824727;29;19981;-69
2021/11/06 09:35:15;;;;;;;13.95;10.20;;;11.90;99.90;;;12.20;82.83;102509.53;4824742;29;20104;-68
2021/11/06 09:37:44;;;;;;;16.88;9.90;;;12.00;99.90;;;12.27;82.77;102516.69;4824447;29;20092;-69
2021/11/06 09:40:13;;;;;;;16.38;10.52;;;12.00;99.90;;;12.28;82.99;102515.84;4824887;29;20042;-69
2021/11/06 09:42:42;;;;;;;14.02;9.90;;;12.00;99.90;;;12.13;83.04;102496.16;4808177;29;20099;-69
2021/11/06 09:45:15;;;;;;;15.32;10.27;;;12.00;99.90;;;12.17;83.07;102482.06;4823099;29;20118;-68
2021/11/06 09:47:44;;;;;;;16.35;10.77;;;12.10;99.90;;;12.44;83.10;102519.63;4824848;29;20050;-68
2021/11/06 09:50:15;;;;;;;15.20;9.73;;;12.10;99.90;;;12.40;83.04;102520.44;4824316;29;20053;-68
2021/11/06 09:52:44;;;;;;;14.23;10.13;;;12.10;99.90;;;12.35;83.20;102516.84;4824374;29;20058;-68
2021/11/06 09:55:16;;;;;;;15.20;9.93;;;12.10;99.90;;;12.35;83.24;102517.69;4824115;29;20068;-68
2021/11/06 09:57:45;;;;;;;14.45;9.80;;;12.10;99.90;;;12.36;83.06;102510.63;4823390;29;20050;-68
2021/11/06 10:00:18;;;;;;;16.23;10.23;;;12.10;99.90;;;12.27;83.04;102494.59;4824062;29;20093;-68
2021/11/06 10:02:49;;;;;;;13.80;10.02;;;12.10;99.90;;;12.41;82.78;102509.84;4807748;29;20059;-68
2021/11/06 10:05:18;;;;;;;13.15;10.45;;;12.20;99.90;;;12.38;82.93;102512.47;4824138;29;20511;-68
2021/11/06 10:07:46;;;;;;;13.05;10.02;;;12.10;99.90;;;12.31;82.96;102504.38;4823835;29;20555;-68
2021/11/06 10:10:17;;;;;;;14.23;9.57;;;12.10;99.90;;;12.36;83.06;102513.28;4824024;29;20043;-69
2021/11/06 10:12:49;;;;;;;;;;;12.10;99.90;;;12.42;83.18;102508.09;4824639;29;20119;-68